sensor_id;sensor_type;location;lat;lon;timestamp;P1;durP1;ratioP1;P2;durP2;ratioP2
59416;SDS011;45222;52.458;20.914;2023-04-06T00:02:03;15.00;;;9.40;;
59416;SDS011;45222;52.458;20.914;2023-04-06T00:05:48;14.10;;;9.10;;
59416;SDS011;45222;52.458;20.914;2023-04-06T00:09:34;14.70;;;8.00;;
59416;SDS011;45222;52.458;20.914;2023-04-06T00:13:19;12.70;;;8.00;;
59416;SDS011;45222;52.458;20.914;2023-04-06T00:17:04;11.00;;;7.30;;
59416;SDS011;45222;52.458;20.914;2023-04-06T00:20:50;11.00;;;4.30;;
59416;SDS011;45222;52.458;20.914;2023-04-06T00:24:35;9.20;;;4.60;;
59416;SDS011;45222;52.458;20.914;2023-04-06T00:28:20;10.90;;;4.20;;
59416;SDS011;45222;52.458;20.914;2023-04-06T00:32:09;11.50;;;7.50;;
59416;SDS011;45222;52.458;20.914;2023-04-06T00:35:54;13.60;;;5.10;;
59416;SDS011;45222;52.458;20.914;2023-04-06T00:39:39;13.00;;;5.70;;
59416;SDS011;45222;52.458;20.914;2023-04-06T00:43:24;11.70;;;5.20;;
59416;SDS011;45222;52.458;20.914;2023-04-06T00:47:09;12.80;;;7.70;;
59416;SDS011;45222;52.458;20.914;2023-04-06T00:50:55;14.00;;;5.40;;
59416;SDS011;45222;52.458;20.914;2023-04-06T00:54:41;17.20;;;8.90;;
59416;SDS011;45222;52.458;20.914;2023-04-06T00:58:26;14.30;;;8.60;;
59416;SDS011;45222;52.458;20.914;2023-04-06T01:02:12;14.70;;;9.40;;
59416;SDS011;45222;52.458;20.914;2023-04-06T01:05:57;15.60;;;5.80;;
59416;SDS011;45222;52.458;20.914;2023-04-06T01:09:43;12.00;;;5.30;;
59416;SDS011;45222;52.458;20.914;2023-04-06T01:13:28;14.60;;;9.30;;
59416;SDS011;45222;52.458;20.914;2023-04-06T01:17:13;14.20;;;8.50;;
59416;SDS011;45222;52.458;20.914;2023-04-06T01:20:58;12.00;;;4.90;;
59416;SDS011;45222;52.458;20.914;2023-04-06T01:24:45;14.20;;;8.60;;
59416;SDS011;45222;52.458;20.914;2023-04-06T01:28:30;14.30;;;8.70;;
59416;SDS011;45222;52.458;20.914;2023-04-06T01:32:15;10.80;;;4.10;;
59416;SDS011;45222;52.458;20.914;2023-04-06T01:36:00;14.10;;;8.70;;
59416;SDS011;45222;52.458;20.914;2023-04-06T01:39:46;13.70;;;6.20;;
59416;SDS011;45222;52.458;20.914;2023-04-06T01:43:31;17.30;;;6.70;;
59416;SDS011;45222;52.458;20.914;2023-04-06T01:47:16;16.40;;;11.40;;
59416;SDS011;45222;52.458;20.914;2023-04-06T01:51:01;16.50;;;6.70;;
59416;SDS011;45222;52.458;20.914;2023-04-06T01:54:47;18.10;;;11.50;;
59416;SDS011;45222;52.458;20.914;2023-04-06T01:58:32;19.10;;;12.00;;
59416;SDS011;45222;52.458;20.914;2023-04-06T02:02:18;14.30;;;6.50;;
59416;SDS011;45222;52.458;20.914;2023-04-06T02:06:04;16.30;;;6.00;;
59416;SDS011;45222;52.458;20.914;2023-04-06T02:09:50;14.60;;;5.70;;
59416;SDS011;45222;52.458;20.914;2023-04-06T02:13:38;22.20;;;13.80;;
59416;SDS011;45222;52.458;20.914;2023-04-06T02:17:24;22.40;;;14.20;;
59416;SDS011;45222;52.458;20.914;2023-04-06T02:21:09;27.70;;;17.50;;
59416;SDS011;45222;52.458;20.914;2023-04-06T02:24:54;26.40;;;16.20;;
59416;SDS011;45222;52.458;20.914;2023-04-06T02:28:39;24.80;;;15.40;;
59416;SDS011;45222;52.458;20.914;2023-04-06T02:32:24;15.80;;;6.70;;
59416;SDS011;45222;52.458;20.914;2023-04-06T02:36:10;18.60;;;11.50;;
59416;SDS011;45222;52.458;20.914;2023-04-06T02:39:55;15.70;;;5.50;;
59416;SDS011;45222;52.458;20.914;2023-04-06T02:43:40;16.70;;;11.30;;
59416;SDS011;45222;52.458;20.914;2023-04-06T02:47:25;12.90;;;5.80;;
59416;SDS011;45222;52.458;20.914;2023-04-06T02:51:10;17.50;;;12.00;;
59416;SDS011;45222;52.458;20.914;2023-04-06T02:54:56;19.40;;;12.50;;
59416;SDS011;45222;52.458;20.914;2023-04-06T02:58:41;14.20;;;5.20;;
59416;SDS011;45222;52.458;20.914;2023-04-06T03:02:27;19.70;;;13.10;;
59416;SDS011;45222;52.458;20.914;2023-04-06T03:06:12;15.90;;;6.20;;
59416;SDS011;45222;52.458;20.914;2023-04-06T03:09:57;21.50;;;14.30;;
59416;SDS011;45222;52.458;20.914;2023-04-06T03:13:43;19.20;;;7.30;;
59416;SDS011;45222;52.458;20.914;2023-04-06T03:17:28;17.40;;;7.80;;
59416;SDS011;45222;52.458;20.914;2023-04-06T03:21:13;18.90;;;12.90;;
59416;SDS011;45222;52.458;20.914;2023-04-06T03:24:58;20.40;;;13.90;;
59416;SDS011;45222;52.458;20.914;2023-04-06T03:28:44;15.80;;;6.50;;
59416;SDS011;45222;52.458;20.914;2023-04-06T03:32:29;18.70;;;12.90;;
59416;SDS011;45222;52.458;20.914;2023-04-06T03:36:14;14.80;;;6.10;;
59416;SDS011;45222;52.458;20.914;2023-04-06T03:39:59;14.80;;;5.70;;
59416;SDS011;45222;52.458;20.914;2023-04-06T03:43:44;15.30;;;5.30;;
59416;SDS011;45222;52.458;20.914;2023-04-06T03:47:30;10.20;;;4.50;;
59416;SDS011;45222;52.458;20.914;2023-04-06T03:51:15;18.30;;;12.50;;
59416;SDS011;45222;52.458;20.914;2023-04-06T03:55:00;13.50;;;5.20;;
59416;SDS011;45222;52.458;20.914;2023-04-06T03:58:45;12.20;;;4.10;;
59416;SDS011;45222;52.458;20.914;2023-04-06T04:02:33;16.60;;;9.30;;
59416;SDS011;45222;52.458;20.914;2023-04-06T04:06:19;14.70;;;9.00;;
59416;SDS011;45222;52.458;20.914;2023-04-06T04:10:05;12.90;;;5.00;;
59416;SDS011;45222;52.458;20.914;2023-04-06T04:13:51;15.10;;;10.40;;
59416;SDS011;45222;52.458;20.914;2023-04-06T04:17:36;12.20;;;4.50;;
59416;SDS011;45222;52.458;20.914;2023-04-06T04:21:22;17.00;;;10.60;;
59416;SDS011;45222;52.458;20.914;2023-04-06T04:25:07;10.50;;;5.10;;
59416;SDS011;45222;52.458;20.914;2023-04-06T04:28:53;15.10;;;10.00;;
59416;SDS011;45222;52.458;20.914;2023-04-06T04:32:39;14.20;;;9.20;;
59416;SDS011;45222;52.458;20.914;2023-04-06T04:36:24;13.90;;;5.20;;
59416;SDS011;45222;52.458;20.914;2023-04-06T04:40:10;13.80;;;9.90;;
59416;SDS011;45222;52.458;20.914;2023-04-06T04:43:56;8.80;;;3.80;;
59416;SDS011;45222;52.458;20.914;2023-04-06T04:47:41;14.00;;;9.20;;
59416;SDS011;45222;52.458;20.914;2023-04-06T04:51:26;13.60;;;4.70;;
59416;SDS011;45222;52.458;20.914;2023-04-06T04:55:11;15.10;;;9.00;;
59416;SDS011;45222;52.458;20.914;2023-04-06T04:58:57;14.50;;;9.10;;
59416;SDS011;45222;52.458;20.914;2023-04-06T05:02:42;13.50;;;8.40;;
59416;SDS011;45222;52.458;20.914;2023-04-06T05:06:28;14.80;;;8.40;;
59416;SDS011;45222;52.458;20.914;2023-04-06T05:10:13;13.50;;;9.00;;
59416;SDS011;45222;52.458;20.914;2023-04-06T05:13:59;8.30;;;3.40;;
59416;SDS011;45222;52.458;20.914;2023-04-06T05:17:44;6.80;;;3.10;;
59416;SDS011;45222;52.458;20.914;2023-04-06T05:21:29;16.60;;;7.90;;
59416;SDS011;45222;52.458;20.914;2023-04-06T05:25:15;10.90;;;3.90;;
59416;SDS011;45222;52.458;20.914;2023-04-06T05:29:00;10.90;;;4.30;;
59416;SDS011;45222;52.458;20.914;2023-04-06T05:32:46;7.60;;;3.10;;
59416;SDS011;45222;52.458;20.914;2023-04-06T05:36:31;11.90;;;7.60;;
59416;SDS011;45222;52.458;20.914;2023-04-06T05:40:17;11.90;;;3.30;;
59416;SDS011;45222;52.458;20.914;2023-04-06T05:44:02;10.40;;;6.70;;
59416;SDS011;45222;52.458;20.914;2023-04-06T05:47:47;6.80;;;2.40;;
59416;SDS011;45222;52.458;20.914;2023-04-06T05:51:34;13.30;;;7.00;;
59416;SDS011;45222;52.458;20.914;2023-04-06T05:55:19;7.40;;;3.00;;
59416;SDS011;45222;52.458;20.914;2023-04-06T05:59:05;10.50;;;6.50;;
59416;SDS011;45222;52.458;20.914;2023-04-06T06:02:50;10.80;;;6.30;;
59416;SDS011;45222;52.458;20.914;2023-04-06T06:06:35;8.70;;;3.30;;
59416;SDS011;45222;52.458;20.914;2023-04-06T06:10:21;9.10;;;2.90;;
59416;SDS011;45222;52.458;20.914;2023-04-06T06:14:06;11.00;;;6.50;;
59416;SDS011;45222;52.458;20.914;2023-04-06T06:17:52;11.60;;;6.60;;
59416;SDS011;45222;52.458;20.914;2023-04-06T06:21:37;11.30;;;6.70;;
59416;SDS011;45222;52.458;20.914;2023-04-06T06:25:22;11.40;;;6.30;;
59416;SDS011;45222;52.458;20.914;2023-04-06T06:29:07;7.40;;;2.90;;
59416;SDS011;45222;52.458;20.914;2023-04-06T06:32:52;10.50;;;6.30;;
59416;SDS011;45222;52.458;20.914;2023-04-06T06:36:38;7.30;;;2.90;;
59416;SDS011;45222;52.458;20.914;2023-04-06T06:40:23;8.50;;;3.30;;
59416;SDS011;45222;52.458;20.914;2023-04-06T06:44:09;9.30;;;5.20;;
59416;SDS011;45222;52.458;20.914;2023-04-06T06:47:54;9.50;;;5.40;;
59416;SDS011;45222;52.458;20.914;2023-04-06T06:51:40;8.10;;;4.70;;
59416;SDS011;45222;52.458;20.914;2023-04-06T06:55:25;7.10;;;2.70;;
59416;SDS011;45222;52.458;20.914;2023-04-06T06:59:10;10.00;;;4.80;;
59416;SDS011;45222;52.458;20.914;2023-04-06T07:02:56;8.40;;;4.70;;
59416;SDS011;45222;52.458;20.914;2023-04-06T07:06:41;8.00;;;4.40;;
59416;SDS011;45222;52.458;20.914;2023-04-06T07:10:27;8.30;;;4.60;;
59416;SDS011;45222;52.458;20.914;2023-04-06T07:14:12;10.40;;;4.70;;
59416;SDS011;45222;52.458;20.914;2023-04-06T07:17:59;7.40;;;4.10;;
59416;SDS011;45222;52.458;20.914;2023-04-06T07:21:44;8.90;;;4.70;;
59416;SDS011;45222;52.458;20.914;2023-04-06T07:25:29;8.30;;;4.20;;
59416;SDS011;45222;52.458;20.914;2023-04-06T07:29:15;7.90;;;4.50;;
59416;SDS011;45222;52.458;20.914;2023-04-06T07:33:01;9.50;;;4.30;;
59416;SDS011;45222;52.458;20.914;2023-04-06T07:36:46;7.70;;;2.70;;
59416;SDS011;45222;52.458;20.914;2023-04-06T07:40:32;7.60;;;3.90;;
59416;SDS011;45222;52.458;20.914;2023-04-06T07:44:17;8.50;;;4.30;;
59416;SDS011;45222;52.458;20.914;2023-04-06T07:48:03;7.80;;;3.90;;
59416;SDS011;45222;52.458;20.914;2023-04-06T07:51:48;9.50;;;4.40;;
59416;SDS011;45222;52.458;20.914;2023-04-06T07:59:56;8.70;;;4.20;;
59416;SDS011;45222;52.458;20.914;2023-04-06T08:03:42;8.40;;;4.50;;
59416;SDS011;45222;52.458;20.914;2023-04-06T08:07:27;5.10;;;2.10;;
59416;SDS011;45222;52.458;20.914;2023-04-06T08:11:12;8.70;;;4.20;;
59416;SDS011;45222;52.458;20.914;2023-04-06T08:14:58;8.30;;;4.30;;
59416;SDS011;45222;52.458;20.914;2023-04-06T08:18:44;9.60;;;4.40;;
59416;SDS011;45222;52.458;20.914;2023-04-06T08:22:29;9.60;;;4.40;;
59416;SDS011;45222;52.458;20.914;2023-04-06T08:26:15;9.30;;;4.60;;
59416;SDS011;45222;52.458;20.914;2023-04-06T08:30:00;9.50;;;4.40;;
59416;SDS011;45222;52.458;20.914;2023-04-06T08:33:46;9.20;;;5.00;;
59416;SDS011;45222;52.458;20.914;2023-04-06T08:37:31;10.00;;;3.00;;
59416;SDS011;45222;52.458;20.914;2023-04-06T08:41:17;9.50;;;4.80;;
59416;SDS011;45222;52.458;20.914;2023-04-06T08:45:03;9.40;;;4.70;;
59416;SDS011;45222;52.458;20.914;2023-04-06T08:48:50;9.50;;;4.70;;
59416;SDS011;45222;52.458;20.914;2023-04-06T08:52:37;9.20;;;4.40;;
59416;SDS011;45222;52.458;20.914;2023-04-06T08:56:24;6.10;;;2.30;;
59416;SDS011;45222;52.458;20.914;2023-04-06T09:00:12;8.40;;;4.20;;
59416;SDS011;45222;52.458;20.914;2023-04-06T09:03:59;5.60;;;2.40;;
59416;SDS011;45222;52.458;20.914;2023-04-06T09:07:45;8.50;;;4.40;;
59416;SDS011;45222;52.458;20.914;2023-04-06T09:11:40;7.70;;;4.40;;
59416;SDS011;45222;52.458;20.914;2023-04-06T09:15:30;8.70;;;4.40;;
59416;SDS011;45222;52.458;20.914;2023-04-06T09:19:16;8.60;;;4.50;;
59416;SDS011;45222;52.458;20.914;2023-04-06T09:23:01;7.80;;;4.40;;
59416;SDS011;45222;52.458;20.914;2023-04-06T09:26:47;9.20;;;4.90;;
59416;SDS011;45222;52.458;20.914;2023-04-06T09:30:32;8.40;;;4.50;;
59416;SDS011;45222;52.458;20.914;2023-04-06T09:34:22;7.90;;;4.50;;
59416;SDS011;45222;52.458;20.914;2023-04-06T09:38:11;7.50;;;4.00;;
59416;SDS011;45222;52.458;20.914;2023-04-06T09:41:56;7.70;;;4.30;;
59416;SDS011;45222;52.458;20.914;2023-04-06T09:45:41;7.00;;;2.30;;
59416;SDS011;45222;52.458;20.914;2023-04-06T09:49:27;7.30;;;2.70;;
59416;SDS011;45222;52.458;20.914;2023-04-06T09:53:17;10.20;;;4.90;;
59416;SDS011;45222;52.458;20.914;2023-04-06T09:57:06;9.00;;;5.00;;
59416;SDS011;45222;52.458;20.914;2023-04-06T10:00:56;8.40;;;5.00;;
59416;SDS011;45222;52.458;20.914;2023-04-06T10:04:49;8.30;;;5.30;;
59416;SDS011;45222;52.458;20.914;2023-04-06T10:08:39;8.90;;;5.00;;
59416;SDS011;45222;52.458;20.914;2023-04-06T10:12:26;8.70;;;5.30;;
59416;SDS011;45222;52.458;20.914;2023-04-06T10:16:12;8.50;;;5.20;;
59416;SDS011;45222;52.458;20.914;2023-04-06T10:19:59;6.20;;;2.70;;
59416;SDS011;45222;52.458;20.914;2023-04-06T10:23:51;8.50;;;4.80;;
59416;SDS011;45222;52.458;20.914;2023-04-06T10:27:40;10.60;;;5.80;;
59416;SDS011;45222;52.458;20.914;2023-04-06T10:31:26;9.00;;;5.30;;
59416;SDS011;45222;52.458;20.914;2023-04-06T10:35:14;9.10;;;5.20;;
59416;SDS011;45222;52.458;20.914;2023-04-06T10:39:04;9.30;;;5.90;;
59416;SDS011;45222;52.458;20.914;2023-04-06T10:42:50;9.30;;;5.70;;
59416;SDS011;45222;52.458;20.914;2023-04-06T10:46:35;9.30;;;5.80;;
59416;SDS011;45222;52.458;20.914;2023-04-06T10:50:21;6.70;;;3.20;;
59416;SDS011;45222;52.458;20.914;2023-04-06T10:54:06;8.00;;;3.20;;
59416;SDS011;45222;52.458;20.914;2023-04-06T10:57:53;9.40;;;5.70;;
59416;SDS011;45222;52.458;20.914;2023-04-06T11:01:39;9.40;;;3.70;;
59416;SDS011;45222;52.458;20.914;2023-04-06T11:05:29;9.60;;;5.80;;
59416;SDS011;45222;52.458;20.914;2023-04-06T11:09:23;9.70;;;6.00;;
59416;SDS011;45222;52.458;20.914;2023-04-06T11:13:10;9.50;;;6.40;;
59416;SDS011;45222;52.458;20.914;2023-04-06T11:16:55;9.70;;;5.70;;
59416;SDS011;45222;52.458;20.914;2023-04-06T11:20:46;8.40;;;3.50;;
59416;SDS011;45222;52.458;20.914;2023-04-06T11:24:32;11.20;;;7.00;;
59416;SDS011;45222;52.458;20.914;2023-04-06T11:28:18;10.40;;;6.80;;
59416;SDS011;45222;52.458;20.914;2023-04-06T11:32:03;7.90;;;3.60;;
59416;SDS011;45222;52.458;20.914;2023-04-06T11:35:49;10.20;;;7.10;;
59416;SDS011;45222;52.458;20.914;2023-04-06T11:39:38;11.20;;;6.70;;
59416;SDS011;45222;52.458;20.914;2023-04-06T11:43:28;7.70;;;4.00;;
59416;SDS011;45222;52.458;20.914;2023-04-06T11:47:14;9.20;;;5.90;;
59416;SDS011;45222;52.458;20.914;2023-04-06T11:51:01;10.20;;;6.40;;
59416;SDS011;45222;52.458;20.914;2023-04-06T11:54:48;7.00;;;3.40;;
59416;SDS011;45222;52.458;20.914;2023-04-06T11:58:34;5.70;;;2.90;;
59416;SDS011;45222;52.458;20.914;2023-04-06T12:02:23;9.00;;;5.20;;
59416;SDS011;45222;52.458;20.914;2023-04-06T12:06:18;8.30;;;5.30;;
59416;SDS011;45222;52.458;20.914;2023-04-06T12:10:04;8.90;;;5.40;;
59416;SDS011;45222;52.458;20.914;2023-04-06T12:13:51;8.90;;;5.30;;
59416;SDS011;45222;52.458;20.914;2023-04-06T12:17:37;8.60;;;5.40;;
59416;SDS011;45222;52.458;20.914;2023-04-06T12:21:23;8.40;;;5.40;;
59416;SDS011;45222;52.458;20.914;2023-04-06T12:25:08;9.10;;;5.20;;
59416;SDS011;45222;52.458;20.914;2023-04-06T12:28:55;7.80;;;3.40;;
59416;SDS011;45222;52.458;20.914;2023-04-06T12:32:42;9.80;;;5.40;;
59416;SDS011;45222;52.458;20.914;2023-04-06T12:36:28;8.80;;;5.20;;
59416;SDS011;45222;52.458;20.914;2023-04-06T12:40:14;8.20;;;4.90;;
59416;SDS011;45222;52.458;20.914;2023-04-06T12:44:00;9.00;;;5.20;;
59416;SDS011;45222;52.458;20.914;2023-04-06T12:47:46;8.30;;;4.70;;
59416;SDS011;45222;52.458;20.914;2023-04-06T12:51:31;9.10;;;5.20;;
59416;SDS011;45222;52.458;20.914;2023-04-06T12:55:17;6.50;;;2.80;;
59416;SDS011;45222;52.458;20.914;2023-04-06T12:59:02;8.30;;;3.20;;
59416;SDS011;45222;52.458;20.914;2023-04-06T13:02:48;8.40;;;2.90;;
59416;SDS011;45222;52.458;20.914;2023-04-06T13:06:33;8.30;;;4.90;;
59416;SDS011;45222;52.458;20.914;2023-04-06T13:10:19;8.10;;;4.30;;
59416;SDS011;45222;52.458;20.914;2023-04-06T13:14:04;7.40;;;4.20;;
59416;SDS011;45222;52.458;20.914;2023-04-06T13:17:50;8.80;;;4.30;;
59416;SDS011;45222;52.458;20.914;2023-04-06T13:21:35;7.90;;;2.90;;
59416;SDS011;45222;52.458;20.914;2023-04-06T13:25:21;8.20;;;4.10;;
59416;SDS011;45222;52.458;20.914;2023-04-06T13:29:06;8.80;;;4.60;;
59416;SDS011;45222;52.458;20.914;2023-04-06T13:32:51;7.30;;;4.40;;
59416;SDS011;45222;52.458;20.914;2023-04-06T13:36:37;6.90;;;2.10;;
59416;SDS011;45222;52.458;20.914;2023-04-06T13:40:24;7.80;;;3.10;;
59416;SDS011;45222;52.458;20.914;2023-04-06T13:44:10;8.30;;;4.70;;
59416;SDS011;45222;52.458;20.914;2023-04-06T13:47:55;8.50;;;4.30;;
59416;SDS011;45222;52.458;20.914;2023-04-06T13:51:45;7.90;;;4.40;;
59416;SDS011;45222;52.458;20.914;2023-04-06T13:55:30;7.70;;;4.00;;
59416;SDS011;45222;52.458;20.914;2023-04-06T13:59:16;7.70;;;4.40;;
59416;SDS011;45222;52.458;20.914;2023-04-06T14:03:01;8.50;;;5.00;;
59416;SDS011;45222;52.458;20.914;2023-04-06T14:06:47;10.60;;;5.90;;
59416;SDS011;45222;52.458;20.914;2023-04-06T14:10:32;10.70;;;5.30;;
59416;SDS011;45222;52.458;20.914;2023-04-06T14:18:07;7.60;;;3.30;;
59416;SDS011;45222;52.458;20.914;2023-04-06T14:21:52;6.50;;;2.70;;
59416;SDS011;45222;52.458;20.914;2023-04-06T14:25:37;8.00;;;4.90;;
59416;SDS011;45222;52.458;20.914;2023-04-06T14:29:23;8.60;;;5.20;;
59416;SDS011;45222;52.458;20.914;2023-04-06T14:33:09;9.60;;;5.30;;
59416;SDS011;45222;52.458;20.914;2023-04-06T14:36:55;8.80;;;5.40;;
59416;SDS011;45222;52.458;20.914;2023-04-06T14:40:40;9.40;;;5.70;;
59416;SDS011;45222;52.458;20.914;2023-04-06T14:44:25;8.60;;;5.00;;
59416;SDS011;45222;52.458;20.914;2023-04-06T14:48:11;8.70;;;5.40;;
59416;SDS011;45222;52.458;20.914;2023-04-06T14:51:57;9.60;;;5.80;;
59416;SDS011;45222;52.458;20.914;2023-04-06T14:55:44;8.70;;;5.00;;
59416;SDS011;45222;52.458;20.914;2023-04-06T14:59:30;10.80;;;6.00;;
59416;SDS011;45222;52.458;20.914;2023-04-06T15:03:16;9.60;;;3.90;;
59416;SDS011;45222;52.458;20.914;2023-04-06T15:07:03;10.90;;;6.20;;
59416;SDS011;45222;52.458;20.914;2023-04-06T15:10:48;10.10;;;6.00;;
59416;SDS011;45222;52.458;20.914;2023-04-06T15:14:34;11.70;;;6.20;;
59416;SDS011;45222;52.458;20.914;2023-04-06T15:18:21;7.90;;;3.90;;
59416;SDS011;45222;52.458;20.914;2023-04-06T15:22:06;10.00;;;5.70;;
59416;SDS011;45222;52.458;20.914;2023-04-06T15:25:55;9.00;;;5.50;;
59416;SDS011;45222;52.458;20.914;2023-04-06T15:29:40;8.10;;;3.40;;
59416;SDS011;45222;52.458;20.914;2023-04-06T15:33:27;8.30;;;3.60;;
59416;SDS011;45222;52.458;20.914;2023-04-06T15:37:13;8.90;;;3.60;;
59416;SDS011;45222;52.458;20.914;2023-04-06T15:40:59;11.80;;;7.80;;
59416;SDS011;45222;52.458;20.914;2023-04-06T15:44:46;10.50;;;6.50;;
59416;SDS011;45222;52.458;20.914;2023-04-06T15:48:31;8.90;;;3.60;;
59416;SDS011;45222;52.458;20.914;2023-04-06T15:52:17;12.40;;;7.40;;
59416;SDS011;45222;52.458;20.914;2023-04-06T15:56:03;10.30;;;7.10;;
59416;SDS011;45222;52.458;20.914;2023-04-06T15:59:50;10.30;;;6.00;;
59416;SDS011;45222;52.458;20.914;2023-04-06T16:03:39;10.30;;;6.60;;
59416;SDS011;45222;52.458;20.914;2023-04-06T16:07:24;12.70;;;8.60;;
59416;SDS011;45222;52.458;20.914;2023-04-06T16:11:09;12.40;;;8.30;;
59416;SDS011;45222;52.458;20.914;2023-04-06T16:14:55;13.90;;;9.60;;
59416;SDS011;45222;52.458;20.914;2023-04-06T16:18:41;14.30;;;9.80;;
59416;SDS011;45222;52.458;20.914;2023-04-06T16:22:26;15.00;;;9.40;;
59416;SDS011;45222;52.458;20.914;2023-04-06T16:26:11;12.20;;;8.20;;
59416;SDS011;45222;52.458;20.914;2023-04-06T16:29:57;8.70;;;3.70;;
59416;SDS011;45222;52.458;20.914;2023-04-06T16:33:43;12.90;;;8.30;;
59416;SDS011;45222;52.458;20.914;2023-04-06T16:37:29;13.90;;;8.80;;
59416;SDS011;45222;52.458;20.914;2023-04-06T16:41:15;15.10;;;9.10;;
59416;SDS011;45222;52.458;20.914;2023-04-06T16:45:00;14.70;;;8.50;;
59416;SDS011;45222;52.458;20.914;2023-04-06T16:48:45;10.00;;;4.40;;
59416;SDS011;45222;52.458;20.914;2023-04-06T16:52:31;12.00;;;7.40;;
59416;SDS011;45222;52.458;20.914;2023-04-06T16:56:16;8.00;;;3.20;;
59416;SDS011;45222;52.458;20.914;2023-04-06T17:00:02;13.10;;;8.80;;
59416;SDS011;45222;52.458;20.914;2023-04-06T17:03:50;15.40;;;10.00;;
59416;SDS011;45222;52.458;20.914;2023-04-06T17:07:35;16.60;;;12.10;;
59416;SDS011;45222;52.458;20.914;2023-04-06T17:11:21;16.20;;;11.60;;
59416;SDS011;45222;52.458;20.914;2023-04-06T17:15:08;16.90;;;10.90;;
59416;SDS011;45222;52.458;20.914;2023-04-06T17:18:54;13.50;;;8.90;;
59416;SDS011;45222;52.458;20.914;2023-04-06T17:22:40;15.80;;;10.80;;
59416;SDS011;45222;52.458;20.914;2023-04-06T17:26:28;14.50;;;10.50;;
59416;SDS011;45222;52.458;20.914;2023-04-06T17:30:14;13.10;;;8.50;;
59416;SDS011;45222;52.458;20.914;2023-04-06T17:34:00;12.80;;;8.50;;
59416;SDS011;45222;52.458;20.914;2023-04-06T17:37:46;14.00;;;9.30;;
59416;SDS011;45222;52.458;20.914;2023-04-06T17:41:31;10.70;;;4.30;;
59416;SDS011;45222;52.458;20.914;2023-04-06T17:45:17;11.50;;;7.40;;
59416;SDS011;45222;52.458;20.914;2023-04-06T17:49:03;14.40;;;9.80;;
59416;SDS011;45222;52.458;20.914;2023-04-06T17:52:51;12.70;;;8.20;;
59416;SDS011;45222;52.458;20.914;2023-04-06T17:56:37;10.80;;;7.40;;
59416;SDS011;45222;52.458;20.914;2023-04-06T18:00:22;12.70;;;8.00;;
59416;SDS011;45222;52.458;20.914;2023-04-06T18:04:08;12.00;;;4.90;;
59416;SDS011;45222;52.458;20.914;2023-04-06T18:07:54;9.50;;;3.70;;
59416;SDS011;45222;52.458;20.914;2023-04-06T18:11:40;11.80;;;7.80;;
59416;SDS011;45222;52.458;20.914;2023-04-06T18:15:25;12.40;;;7.60;;
59416;SDS011;45222;52.458;20.914;2023-04-06T18:19:11;12.50;;;8.10;;
59416;SDS011;45222;52.458;20.914;2023-04-06T18:22:57;13.70;;;9.20;;
59416;SDS011;45222;52.458;20.914;2023-04-06T18:26:43;12.00;;;8.80;;
59416;SDS011;45222;52.458;20.914;2023-04-06T18:30:29;11.60;;;8.20;;
59416;SDS011;45222;52.458;20.914;2023-04-06T18:34:14;11.10;;;7.70;;
59416;SDS011;45222;52.458;20.914;2023-04-06T18:38:00;13.20;;;5.90;;
59416;SDS011;45222;52.458;20.914;2023-04-06T18:41:46;12.50;;;9.20;;
59416;SDS011;45222;52.458;20.914;2023-04-06T18:45:31;12.60;;;5.70;;
59416;SDS011;45222;52.458;20.914;2023-04-06T18:49:18;15.90;;;12.80;;
59416;SDS011;45222;52.458;20.914;2023-04-06T18:53:03;12.10;;;8.30;;
59416;SDS011;45222;52.458;20.914;2023-04-06T18:56:48;14.40;;;9.30;;
59416;SDS011;45222;52.458;20.914;2023-04-06T19:00:34;13.10;;;8.90;;
59416;SDS011;45222;52.458;20.914;2023-04-06T19:04:23;13.10;;;9.50;;
59416;SDS011;45222;52.458;20.914;2023-04-06T19:08:08;12.90;;;9.30;;
59416;SDS011;45222;52.458;20.914;2023-04-06T19:11:54;12.10;;;5.70;;
59416;SDS011;45222;52.458;20.914;2023-04-06T19:15:40;12.90;;;8.90;;
59416;SDS011;45222;52.458;20.914;2023-04-06T19:19:25;11.70;;;5.90;;
59416;SDS011;45222;52.458;20.914;2023-04-06T19:23:11;12.40;;;9.30;;
59416;SDS011;45222;52.458;20.914;2023-04-06T19:26:56;13.40;;;9.90;;
59416;SDS011;45222;52.458;20.914;2023-04-06T19:30:42;10.90;;;5.10;;
59416;SDS011;45222;52.458;20.914;2023-04-06T19:34:28;10.90;;;5.00;;
59416;SDS011;45222;52.458;20.914;2023-04-06T19:38:14;13.80;;;9.60;;
59416;SDS011;45222;52.458;20.914;2023-04-06T19:41:59;14.40;;;9.90;;
59416;SDS011;45222;52.458;20.914;2023-04-06T19:45:45;11.90;;;5.30;;
59416;SDS011;45222;52.458;20.914;2023-04-06T19:49:33;11.90;;;9.20;;
59416;SDS011;45222;52.458;20.914;2023-04-06T19:53:23;12.10;;;9.50;;
59416;SDS011;45222;52.458;20.914;2023-04-06T19:57:08;13.00;;;9.70;;
59416;SDS011;45222;52.458;20.914;2023-04-06T20:00:53;12.50;;;9.00;;
59416;SDS011;45222;52.458;20.914;2023-04-06T20:04:38;9.10;;;4.50;;
59416;SDS011;45222;52.458;20.914;2023-04-06T20:08:24;13.70;;;9.50;;
59416;SDS011;45222;52.458;20.914;2023-04-06T20:12:11;11.70;;;9.10;;
59416;SDS011;45222;52.458;20.914;2023-04-06T20:15:56;12.80;;;9.20;;
59416;SDS011;45222;52.458;20.914;2023-04-06T20:19:41;12.00;;;8.80;;
59416;SDS011;45222;52.458;20.914;2023-04-06T20:23:27;12.40;;;9.00;;
59416;SDS011;45222;52.458;20.914;2023-04-06T20:27:17;13.70;;;9.50;;
59416;SDS011;45222;52.458;20.914;2023-04-06T20:31:02;14.50;;;6.60;;
59416;SDS011;45222;52.458;20.914;2023-04-06T20:34:48;14.00;;;9.90;;
59416;SDS011;45222;52.458;20.914;2023-04-06T20:38:34;10.90;;;4.50;;
59416;SDS011;45222;52.458;20.914;2023-04-06T20:42:19;10.50;;;5.40;;
59416;SDS011;45222;52.458;20.914;2023-04-06T20:46:06;12.60;;;10.10;;
59416;SDS011;45222;52.458;20.914;2023-04-06T20:49:57;14.30;;;7.20;;
59416;SDS011;45222;52.458;20.914;2023-04-06T20:53:42;13.60;;;9.60;;
59416;SDS011;45222;52.458;20.914;2023-04-06T20:57:28;14.00;;;10.90;;
59416;SDS011;45222;52.458;20.914;2023-04-06T21:01:14;12.80;;;5.80;;
59416;SDS011;45222;52.458;20.914;2023-04-06T21:05:01;13.40;;;6.20;;
59416;SDS011;45222;52.458;20.914;2023-04-06T21:08:46;15.60;;;12.30;;
59416;SDS011;45222;52.458;20.914;2023-04-06T21:12:31;15.70;;;11.10;;
59416;SDS011;45222;52.458;20.914;2023-04-06T21:16:17;14.50;;;11.20;;
59416;SDS011;45222;52.458;20.914;2023-04-06T21:20:02;13.30;;;10.10;;
59416;SDS011;45222;52.458;20.914;2023-04-06T21:23:49;13.80;;;6.20;;
59416;SDS011;45222;52.458;20.914;2023-04-06T21:27:37;12.90;;;5.90;;
59416;SDS011;45222;52.458;20.914;2023-04-06T21:31:22;14.50;;;7.30;;
59416;SDS011;45222;52.458;20.914;2023-04-06T21:35:09;15.50;;;11.50;;
59416;SDS011;45222;52.458;20.914;2023-04-06T21:38:54;15.00;;;11.20;;
59416;SDS011;45222;52.458;20.914;2023-04-06T21:42:40;14.90;;;11.80;;
59416;SDS011;45222;52.458;20.914;2023-04-06T21:46:25;19.90;;;7.60;;
59416;SDS011;45222;52.458;20.914;2023-04-06T21:50:10;12.70;;;6.40;;
59416;SDS011;45222;52.458;20.914;2023-04-06T21:53:56;11.40;;;5.10;;
59416;SDS011;45222;52.458;20.914;2023-04-06T21:57:41;16.60;;;12.70;;
59416;SDS011;45222;52.458;20.914;2023-04-06T22:01:26;16.70;;;13.20;;
59416;SDS011;45222;52.458;20.914;2023-04-06T22:05:12;11.30;;;6.20;;
59416;SDS011;45222;52.458;20.914;2023-04-06T22:08:57;16.30;;;7.80;;
59416;SDS011;45222;52.458;20.914;2023-04-06T22:12:44;15.90;;;11.50;;
59416;SDS011;45222;52.458;20.914;2023-04-06T22:16:29;18.20;;;12.20;;